sensor_id;sensor_type;location;lat;lon;timestamp;pressure;altitude;pressure_sealevel;temperature;humidity
47815;BME280;33579;50.058;18.130;2023-05-07T00:00:37;99441.13;;;12.03;100.00
47815;BME280;33579;50.058;18.130;2023-05-07T00:01:39;99430.13;;;11.98;100.00
47815;BME280;33579;50.058;18.130;2023-05-07T00:02:41;99438.97;;;11.97;100.00
47815;BME280;33579;50.058;18.130;2023-05-07T00:03:42;99443.72;;;11.93;100.00
47815;BME280;33579;50.058;18.130;2023-05-07T00:04:44;99438.84;;;11.88;100.00
47815;BME280;33579;50.058;18.130;2023-05-07T00:05:46;99445.91;;;11.88;100.00
47815;BME280;33579;50.058;18.130;2023-05-07T00:06:47;99446.75;;;11.88;100.00
47815;BME280;33579;50.058;18.130;2023-05-07T00:07:49;99444.25;;;11.87;100.00
47815;BME280;33579;50.058;18.130;2023-05-07T00:08:50;99440.34;;;11.81;100.00
47815;BME280;33579;50.058;18.130;2023-05-07T00:09:52;99444.38;;;11.85;100.00
47815;BME280;33579;50.058;18.130;2023-05-07T00:10:54;99446.75;;;11.88;100.00
47815;BME280;33579;50.058;18.130;2023-05-07T00:11:55;99446.59;;;11.90;100.00
47815;BME280;33579;50.058;18.130;2023-05-07T00:12:57;99451.06;;;11.89;100.00
47815;BME280;33579;50.058;18.130;2023-05-07T00:13:58;99449.91;;;11.82;100.00
47815;BME280;33579;50.058;18.130;2023-05-07T00:15:02;99454.22;;;11.83;100.00
47815;BME280;33579;50.058;18.130;2023-05-07T00:16:04;99452.56;;;11.82;100.00
47815;BME280;33579;50.058;18.130;2023-05-07T00:17:06;99449.91;;;11.82;100.00
47815;BME280;33579;50.058;18.130;2023-05-07T00:18:08;99454.34;;;11.72;100.00
47815;BME280;33579;50.058;18.130;2023-05-07T00:19:09;99455.56;;;11.67;100.00
47815;BME280;33579;50.058;18.130;2023-05-07T00:20:11;99454.00;;;11.55;100.00
47815;BME280;33579;50.058;18.130;2023-05-07T00:21:13;99459.97;;;11.47;100.00
47815;BME280;33579;50.058;18.130;2023-05-07T00:22:15;99459.84;;;11.49;100.00
47815;BME280;33579;50.058;18.130;2023-05-07T00:23:16;99459.25;;;11.45;100.00
47815;BME280;33579;50.058;18.130;2023-05-07T00:24:18;99451.19;;;11.47;100.00
47815;BME280;33579;50.058;18.130;2023-05-07T00:25:19;99446.38;;;11.52;100.00
47815;BME280;33579;50.058;18.130;2023-05-07T00:26:21;99460.56;;;11.61;100.00
47815;BME280;33579;50.058;18.130;2023-05-07T00:27:25;99457.06;;;11.60;100.00
47815;BME280;33579;50.058;18.130;2023-05-07T00:28:26;99456.53;;;11.57;100.00
47815;BME280;33579;50.058;18.130;2023-05-07T00:29:28;99454.44;;;11.60;100.00
47815;BME280;33579;50.058;18.130;2023-05-07T00:30:30;99461.22;;;11.53;100.00
47815;BME280;33579;50.058;18.130;2023-05-07T00:31:31;99455.09;;;11.52;100.00
47815;BME280;33579;50.058;18.130;2023-05-07T00:32:33;99453.19;;;11.55;100.00
47815;BME280;33579;50.058;18.130;2023-05-07T00:33:34;99453.31;;;11.53;100.00
47815;BME280;33579;50.058;18.130;2023-05-07T00:34:36;99452.22;;;11.56;100.00
47815;BME280;33579;50.058;18.130;2023-05-07T00:35:37;99459.00;;;11.58;100.00
47815;BME280;33579;50.058;18.130;2023-05-07T00:36:39;99456.25;;;11.60;100.00
47815;BME280;33579;50.058;18.130;2023-05-07T00:37:41;99460.84;;;11.67;100.00
47815;BME280;33579;50.058;18.130;2023-05-07T00:38:42;99457.63;;;11.64;100.00
47815;BME280;33579;50.058;18.130;2023-05-07T00:39:44;99456.53;;;11.57;100.00
47815;BME280;33579;50.058;18.130;2023-05-07T00:40:45;99458.03;;;11.59;100.00
47815;BME280;33579;50.058;18.130;2023-05-07T00:41:47;99451.81;;;11.60;100.00
47815;BME280;33579;50.058;18.130;2023-05-07T00:42:49;99458.88;;;11.60;100.00
47815;BME280;33579;50.058;18.130;2023-05-07T00:43:50;99453.34;;;11.63;100.00
47815;BME280;33579;50.058;18.130;2023-05-07T00:44:52;99462.38;;;11.70;100.00
47815;BME280;33579;50.058;18.130;2023-05-07T00:45:53;99456.00;;;11.73;100.00
47815;BME280;33579;50.058;18.130;2023-05-07T00:46:58;99461.59;;;11.79;100.00
47815;BME280;33579;50.058;18.130;2023-05-07T00:48:03;99462.97;;;11.84;100.00
47815;BME280;33579;50.058;18.130;2023-05-07T00:49:05;99461.25;;;11.73;100.00
47815;BME280;33579;50.058;18.130;2023-05-07T00:50:07;99465.84;;;11.71;100.00
47815;BME280;33579;50.058;18.130;2023-05-07T00:51:10;99469.16;;;11.73;100.00
47815;BME280;33579;50.058;18.130;2023-05-07T00:52:15;99468.66;;;11.79;100.00
47815;BME280;33579;50.058;18.130;2023-05-07T00:53:17;99462.81;;;11.85;100.00
47815;BME280;33579;50.058;18.130;2023-05-07T00:54:19;99466.59;;;11.92;100.00
47815;BME280;33579;50.058;18.130;2023-05-07T00:55:22;99463.84;;;11.94;100.00
47815;BME280;33579;50.058;18.130;2023-05-07T00:56:24;99469.69;;;11.98;100.00
47815;BME280;33579;50.058;18.130;2023-05-07T00:57:26;99467.72;;;12.00;100.00
47815;BME280;33579;50.058;18.130;2023-05-07T00:58:28;99467.97;;;11.97;100.00
47815;BME280;33579;50.058;18.130;2023-05-07T00:59:31;99465.63;;;11.93;100.00
47815;BME280;33579;50.058;18.130;2023-05-07T01:00:33;99463.84;;;11.94;100.00
47815;BME280;33579;50.058;18.130;2023-05-07T01:01:34;99461.03;;;11.95;100.00
47815;BME280;33579;50.058;18.130;2023-05-07T01:02:36;99455.38;;;12.00;100.00
47815;BME280;33579;50.058;18.130;2023-05-07T01:03:38;99463.56;;;11.97;100.00
47815;BME280;33579;50.058;18.130;2023-05-07T01:04:40;99461.31;;;11.92;100.00
47815;BME280;33579;50.058;18.130;2023-05-07T01:05:42;99462.88;;;11.95;100.00
47815;BME280;33579;50.058;18.130;2023-05-07T01:06:45;99462.59;;;11.98;100.00
47815;BME280;33579;50.058;18.130;2023-05-07T01:07:49;99466.88;;;11.99;100.00
47815;BME280;33579;50.058;18.130;2023-05-07T01:08:51;99469.16;;;12.04;100.00
47815;BME280;33579;50.058;18.130;2023-05-07T01:09:53;99470.28;;;12.11;100.00
47815;BME280;33579;50.058;18.130;2023-05-07T01:10:56;99463.19;;;12.12;100.00
47815;BME280;33579;50.058;18.130;2023-05-07T01:11:58;99471.66;;;12.15;100.00
47815;BME280;33579;50.058;18.130;2023-05-07T01:13:00;99473.59;;;12.13;100.00
47815;BME280;33579;50.058;18.130;2023-05-07T01:14:03;99469.84;;;12.16;100.00
47815;BME280;33579;50.058;18.130;2023-05-07T01:15:05;99467.78;;;12.19;100.00
47815;BME280;33579;50.058;18.130;2023-05-07T01:16:09;99473.47;;;12.25;100.00
47815;BME280;33579;50.058;18.130;2023-05-07T01:17:11;99467.25;;;12.26;100.00
47815;BME280;33579;50.058;18.130;2023-05-07T01:18:13;99467.81;;;12.29;100.00
47815;BME280;33579;50.058;18.130;2023-05-07T01:19:18;99470.16;;;12.32;100.00
47815;BME280;33579;50.058;18.130;2023-05-07T01:20:20;99462.94;;;12.34;100.00
47815;BME280;33579;50.058;18.130;2023-05-07T01:21:25;99463.78;;;12.35;100.00
47815;BME280;33579;50.058;18.130;2023-05-07T01:22:33;99463.63;;;12.36;100.00
47815;BME280;33579;50.058;18.130;2023-05-07T01:23:35;99464.59;;;12.35;100.00
47815;BME280;33579;50.058;18.130;2023-05-07T01:24:37;99463.78;;;12.35;100.00
47815;BME280;33579;50.058;18.130;2023-05-07T01:25:40;99465.44;;;12.36;100.00
47815;BME280;33579;50.058;18.130;2023-05-07T01:26:43;99470.00;;;12.24;100.00
47815;BME280;33579;50.058;18.130;2023-05-07T01:27:48;99465.41;;;12.26;100.00
47815;BME280;33579;50.058;18.130;2023-05-07T01:28:49;99469.72;;;12.27;100.00
47815;BME280;33579;50.058;18.130;2023-05-07T01:29:51;99473.31;;;12.26;100.00
47815;BME280;33579;50.058;18.130;2023-05-07T01:30:54;99467.25;;;12.26;100.00
47815;BME280;33579;50.058;18.130;2023-05-07T01:31:59;99460.13;;;12.26;100.00
47815;BME280;33579;50.058;18.130;2023-05-07T01:33:06;99466.38;;;12.25;100.00
47815;BME280;33579;50.058;18.130;2023-05-07T01:34:11;99460.13;;;12.26;100.00
47815;BME280;33579;50.058;18.130;2023-05-07T01:35:18;99472.22;;;12.29;100.00
47815;BME280;33579;50.058;18.130;2023-05-07T01:36:21;99458.34;;;12.27;100.00
47815;BME280;33579;50.058;18.130;2023-05-07T01:37:24;99467.53;;;12.22;100.00
47815;BME280;33579;50.058;18.130;2023-05-07T01:38:27;99468.34;;;12.23;100.00
47815;BME280;33579;50.058;18.130;2023-05-07T01:39:30;99468.22;;;12.25;100.00
47815;BME280;33579;50.058;18.130;2023-05-07T01:40:32;99466.53;;;12.23;100.00
47815;BME280;33579;50.058;18.130;2023-05-07T01:41:34;99469.44;;;12.20;100.00
47815;BME280;33579;50.058;18.130;2023-05-07T01:42:36;99459.16;;;12.17;100.00
47815;BME280;33579;50.058;18.130;2023-05-07T01:43:40;99465.56;;;12.25;100.00
47815;BME280;33579;50.058;18.130;2023-05-07T01:44:42;99464.72;;;12.24;100.00
47815;BME280;33579;50.058;18.130;2023-05-07T01:45:44;99462.94;;;12.25;100.00
47815;BME280;33579;50.058;18.130;2023-05-07T01:46:47;99468.22;;;12.25;100.00
47815;BME280;33579;50.058;18.130;2023-05-07T01:47:49;99461.41;;;12.12;100.00
47815;BME280;33579;50.058;18.130;2023-05-07T01:48:51;99455.44;;;12.10;100.00
47815;BME280;33579;50.058;18.130;2023-05-07T01:49:55;99457.34;;;12.08;100.00
47815;BME280;33579;50.058;18.130;2023-05-07T01:50:57;99461.13;;;12.05;100.00
47815;BME280;33579;50.058;18.130;2023-05-07T01:51:59;99463.47;;;12.08;100.00
47815;BME280;33579;50.058;18.130;2023-05-07T01:53:01;99459.97;;;12.08;100.00
47815;BME280;33579;50.058;18.130;2023-05-07T01:54:03;99457.22;;;12.09;100.00
47815;BME280;33579;50.058;18.130;2023-05-07T01:55:06;99459.16;;;12.07;100.00
47815;BME280;33579;50.058;18.130;2023-05-07T01:56:07;99453.88;;;12.07;100.00
47815;BME280;33579;50.058;18.130;2023-05-07T01:57:11;99456.38;;;12.09;100.00
47815;BME280;33579;50.058;18.130;2023-05-07T01:58:13;99456.66;;;12.06;100.00
47815;BME280;33579;50.058;18.130;2023-05-07T01:59:14;99461.94;;;12.06;100.00
47815;BME280;33579;50.058;18.130;2023-05-07T02:00:16;99457.03;;;12.01;100.00
47815;BME280;33579;50.058;18.130;2023-05-07T02:01:18;99465.09;;;12.00;100.00
47815;BME280;33579;50.058;18.130;2023-05-07T02:02:21;99461.75;;;11.98;100.00
47815;BME280;33579;50.058;18.130;2023-05-07T02:03:23;99464.25;;;11.99;100.00
47815;BME280;33579;50.058;18.130;2023-05-07T02:04:32;99462.72;;;11.97;100.00
47815;BME280;33579;50.058;18.130;2023-05-07T02:05:34;99463.97;;;11.92;100.00
47815;BME280;33579;50.058;18.130;2023-05-07T02:06:41;99466.03;;;11.89;100.00
47815;BME280;33579;50.058;18.130;2023-05-07T02:07:44;99462.81;;;11.85;100.00
47815;BME280;33579;50.058;18.130;2023-05-07T02:08:46;99460.47;;;11.82;100.00
47815;BME280;33579;50.058;18.130;2023-05-07T02:09:49;99467.69;;;11.80;100.00
47815;BME280;33579;50.058;18.130;2023-05-07T02:10:50;99465.59;;;11.74;100.00
47815;BME280;33579;50.058;18.130;2023-05-07T02:11:52;99454.88;;;11.65;100.00
47815;BME280;33579;50.058;18.130;2023-05-07T02:12:55;99467.38;;;11.63;100.00
47815;BME280;33579;50.058;18.130;2023-05-07T02:13:57;99462.91;;;11.64;100.00
47815;BME280;33579;50.058;18.130;2023-05-07T02:14:58;99456.81;;;11.63;100.00
47815;BME280;33579;50.058;18.130;2023-05-07T02:16:01;99460.56;;;11.61;100.00
47815;BME280;33579;50.058;18.130;2023-05-07T02:17:02;99460.44;;;11.62;100.00
47815;BME280;33579;50.058;18.130;2023-05-07T02:18:06;99461.53;;;11.60;100.00
47815;BME280;33579;50.058;18.130;2023-05-07T02:19:08;99465.78;;;11.51;100.00
47815;BME280;33579;50.058;18.130;2023-05-07T02:20:10;99463.84;;;11.53;100.00
47815;BME280;33579;50.058;18.130;2023-05-07T02:21:12;99456.22;;;11.50;100.00
47815;BME280;33579;50.058;18.130;2023-05-07T02:22:14;99463.16;;;11.51;100.00
47815;BME280;33579;50.058;18.130;2023-05-07T02:23:15;99461.63;;;11.48;100.00
47815;BME280;33579;50.058;18.130;2023-05-07T02:24:17;99467.31;;;11.53;100.00
47815;BME280;33579;50.058;18.130;2023-05-07T02:25:18;99471.22;;;11.59;100.00
47815;BME280;33579;50.058;18.130;2023-05-07T02:26:20;99464.72;;;11.63;100.00
47815;BME280;33579;50.058;18.130;2023-05-07T02:27:22;99459.47;;;11.73;100.00
47815;BME280;33579;50.058;18.130;2023-05-07T02:28:24;99467.06;;;11.57;100.00
47815;BME280;33579;50.058;18.130;2023-05-07T02:29:33;99470.22;;;11.50;100.00
47815;BME280;33579;50.058;18.130;2023-05-07T02:30:36;99467.47;;;11.52;100.00
47815;BME280;33579;50.058;18.130;2023-05-07T02:31:38;99463.59;;;11.56;100.00
47815;BME280;33579;50.058;18.130;2023-05-07T02:32:39;99467.38;;;11.63;100.00
47815;BME280;33579;50.058;18.130;2023-05-07T02:33:41;99473.34;;;11.65;100.00
47815;BME280;33579;50.058;18.130;2023-05-07T02:34:43;99472.09;;;11.70;100.00
47815;BME280;33579;50.058;18.130;2023-05-07T02:35:45;99472.78;;;11.72;100.00
47815;BME280;33579;50.058;18.130;2023-05-07T02:36:48;99472.09;;;11.70;100.00
47815;BME280;33579;50.058;18.130;2023-05-07T02:37:53;99476.38;;;11.71;100.00
47815;BME280;33579;50.058;18.130;2023-05-07T02:38:56;99475.69;;;11.69;100.00
47815;BME280;33579;50.058;18.130;2023-05-07T02:39:58;99475.69;;;11.69;100.00
47815;BME280;33579;50.058;18.130;2023-05-07T02:40:59;99476.38;;;11.71;100.00
47815;BME280;33579;50.058;18.130;2023-05-07T02:42:01;99474.31;;;11.64;100.00
47815;BME280;33579;50.058;18.130;2023-05-07T02:43:03;99468.75;;;11.67;100.00
47815;BME280;33579;50.058;18.130;2023-05-07T02:44:04;99481.81;;;11.69;100.00
47815;BME280;33579;50.058;18.130;2023-05-07T02:45:07;99473.63;;;11.72;100.00
47815;BME280;33579;50.058;18.130;2023-05-07T02:46:09;99470.56;;;11.67;100.00
47815;BME280;33579;50.058;18.130;2023-05-07T02:47:15;99471.78;;;11.63;100.00
47815;BME280;33579;50.058;18.130;2023-05-07T02:48:18;99473.84;;;11.59;100.00
47815;BME280;33579;50.058;18.130;2023-05-07T02:49:20;99470.91;;;11.52;100.00
47815;BME280;33579;50.058;18.130;2023-05-07T02:50:21;99469.78;;;11.45;100.00
47815;BME280;33579;50.058;18.130;2023-05-07T02:51:25;99471.19;;;11.49;100.00
47815;BME280;33579;50.058;18.130;2023-05-07T02:52:29;99469.13;;;11.53;100.00
47815;BME280;33579;50.058;18.130;2023-05-07T02:53:31;99468.53;;;11.39;100.00
47815;BME280;33579;50.058;18.130;2023-05-07T02:54:32;99478.38;;;11.37;100.00
47815;BME280;33579;50.058;18.130;2023-05-07T02:55:34;99477.03;;;11.22;100.00
47815;BME280;33579;50.058;18.130;2023-05-07T02:56:35;99467.22;;;11.03;100.00
47815;BME280;33579;50.058;18.130;2023-05-07T02:57:37;99469.09;;;10.91;100.00
47815;BME280;33579;50.058;18.130;2023-05-07T02:58:40;99469.88;;;10.81;100.00
47815;BME280;33579;50.058;18.130;2023-05-07T02:59:43;99471.41;;;10.84;100.00
47815;BME280;33579;50.058;18.130;2023-05-07T03:00:46;99475.03;;;10.83;100.00
47815;BME280;33579;50.058;18.130;2023-05-07T03:02:02;99472.06;;;10.76;100.00
47815;BME280;33579;50.058;18.130;2023-05-07T03:03:03;99484.13;;;10.79;100.00
47815;BME280;33579;50.058;18.130;2023-05-07T03:04:05;99483.28;;;10.57;100.00
47815;BME280;33579;50.058;18.130;2023-05-07T03:05:07;99484.94;;;10.58;100.00
47815;BME280;33579;50.058;18.130;2023-05-07T03:06:09;99476.22;;;10.58;100.00
47815;BME280;33579;50.058;18.130;2023-05-07T03:07:10;99484.00;;;10.59;100.00
47815;BME280;33579;50.058;18.130;2023-05-07T03:08:12;99474.88;;;10.63;100.00
47815;BME280;33579;50.058;18.130;2023-05-07T03:09:13;99480.19;;;10.73;100.00
47815;BME280;33579;50.058;18.130;2023-05-07T03:10:15;99478.72;;;10.80;100.00
47815;BME280;33579;50.058;18.130;2023-05-07T03:11:17;99489.84;;;10.84;100.00
47815;BME280;33579;50.058;18.130;2023-05-07T03:12:18;99478.72;;;10.80;100.00
47815;BME280;33579;50.058;18.130;2023-05-07T03:13:20;99480.88;;;10.87;100.00
47815;BME280;33579;50.058;18.130;2023-05-07T03:14:22;99492.00;;;10.79;100.00
47815;BME280;33579;50.058;18.130;2023-05-07T03:15:24;99477.19;;;10.78;100.00
47815;BME280;33579;50.058;18.130;2023-05-07T03:16:26;99488.75;;;10.87;100.00
47815;BME280;33579;50.058;18.130;2023-05-07T03:17:28;99485.59;;;10.93;100.00
47815;BME280;33579;50.058;18.130;2023-05-07T03:18:29;99492.53;;;10.94;100.00
47815;BME280;33579;50.058;18.130;2023-05-07T03:19:31;99494.47;;;10.92;100.00
47815;BME280;33579;50.058;18.130;2023-05-07T03:20:33;99489.78;;;10.95;100.00
47815;BME280;33579;50.058;18.130;2023-05-07T03:21:35;99485.34;;;10.96;100.00
47815;BME280;33579;50.058;18.130;2023-05-07T03:22:36;99496.13;;;10.93;100.00
47815;BME280;33579;50.058;18.130;2023-05-07T03:23:38;99496.72;;;10.96;100.00
47815;BME280;33579;50.058;18.130;2023-05-07T03:24:40;99501.97;;;10.96;100.00
47815;BME280;33579;50.058;18.130;2023-05-07T03:25:41;99494.91;;;10.97;100.00
47815;BME280;33579;50.058;18.130;2023-05-07T03:26:43;99496.13;;;10.93;100.00
47815;BME280;33579;50.058;18.130;2023-05-07T03:27:44;99499.41;;;10.85;100.00
47815;BME280;33579;50.058;18.130;2023-05-07T03:28:46;99500.38;;;10.84;100.00
47815;BME280;33579;50.058;18.130;2023-05-07T03:29:50;99503.00;;;10.84;100.00
47815;BME280;33579;50.058;18.130;2023-05-07T03:30:52;99506.91;;;10.90;100.00
47815;BME280;33579;50.058;18.130;2023-05-07T03:31:53;99507.56;;;10.82;100.00
47815;BME280;33579;50.058;18.130;2023-05-07T03:32:55;99500.81;;;10.68;100.00
47815;BME280;33579;50.058;18.130;2023-05-07T03:33:57;99508.59;;;10.70;100.00
47815;BME280;33579;50.058;18.130;2023-05-07T03:35:00;99504.66;;;10.64;100.00
47815;BME280;33579;50.058;18.130;2023-05-07T03:36:01;99510.63;;;10.66;100.00
47815;BME280;33579;50.058;18.130;2023-05-07T03:37:03;99503.81;;;10.63;100.00
47815;BME280;33579;50.058;18.130;2023-05-07T03:38:05;99506.69;;;10.60;100.00
47815;BME280;33579;50.058;18.130;2023-05-07T03:39:09;99506.44;;;10.63;100.00
47815;BME280;33579;50.058;18.130;2023-05-07T03:40:14;99504.41;;;10.67;100.00
47815;BME280;33579;50.058;18.130;2023-05-07T03:41:20;99513.59;;;10.73;100.00
47815;BME280;33579;50.058;18.130;2023-05-07T03:42:22;99514.88;;;10.78;100.00
47815;BME280;33579;50.058;18.130;2023-05-07T03:43:26;99513.91;;;10.79;100.00
47815;BME280;33579;50.058;18.130;2023-05-07T03:44:35;99517.34;;;10.80;100.00
47815;BME280;33579;50.058;18.130;2023-05-07T03:45:37;99520.00;;;10.80;100.00
47815;BME280;33579;50.058;18.130;2023-05-07T03:46:46;99513.97;;;10.68;100.00
47815;BME280;33579;50.058;18.130;2023-05-07T03:47:48;99519.22;;;10.68;100.00
47815;BME280;33579;50.058;18.130;2023-05-07T03:48:52;99519.34;;;10.66;100.00
47815;BME280;33579;50.058;18.130;2023-05-07T03:49:55;99524.41;;;10.58;100.00
47815;BME280;33579;50.058;18.130;2023-05-07T03:50:59;99525.59;;;10.54;100.00
47815;BME280;33579;50.058;18.130;2023-05-07T03:52:05;99521.19;;;10.54;100.00
47815;BME280;33579;50.058;18.130;2023-05-07T03:53:07;99526.47;;;10.54;100.00
47815;BME280;33579;50.058;18.130;2023-05-07T03:54:12;99531.25;;;10.49;100.00
47815;BME280;33579;50.058;18.130;2023-05-07T03:55:18;99528.50;;;10.51;100.00
47815;BME280;33579;50.058;18.130;2023-05-07T03:56:24;99532.19;;;10.48;100.00
47815;BME280;33579;50.058;18.130;2023-05-07T03:57:28;99526.22;;;10.46;100.00
47815;BME280;33579;50.058;18.130;2023-05-07T03:58:31;99527.91;;;10.47;100.00
47815;BME280;33579;50.058;18.130;2023-05-07T03:59:37;99530.31;;;10.50;100.00
47815;BME280;33579;50.058;18.130;2023-05-07T04:00:39;99530.41;;;10.49;100.00
47815;BME280;33579;50.058;18.130;2023-05-07T04:01:51;99530.16;;;10.52;100.00
47815;BME280;33579;50.058;18.130;2023-05-07T04:02:55;99526.91;;;10.60;100.00
47815;BME280;33579;50.058;18.130;2023-05-07T04:04:00;99530.25;;;10.62;100.00
47815;BME280;33579;50.058;18.130;2023-05-07T04:05:02;99533.00;;;10.60;100.00
47815;BME280;33579;50.058;18.130;2023-05-07T04:06:04;99528.59;;;10.49;100.00
47815;BME280;33579;50.058;18.130;2023-05-07T04:07:08;99531.00;;;10.52;100.00
47815;BME280;33579;50.058;18.130;2023-05-07T04:08:14;99525.06;;;10.39;100.00
47815;BME280;33579;50.058;18.130;2023-05-07T04:09:20;99531.28;;;10.38;100.00
47815;BME280;33579;50.058;18.130;2023-05-07T04:10:22;99531.97;;;10.40;100.00
47815;BME280;33579;50.058;18.130;2023-05-07T04:11:27;99530.16;;;10.40;100.00
47815;BME280;33579;50.058;18.130;2023-05-07T04:12:29;99531.13;;;10.39;100.00
47815;BME280;33579;50.058;18.130;2023-05-07T04:13:30;99549.69;;;10.38;100.00
47815;BME280;33579;50.058;18.130;2023-05-07T04:14:33;99547.28;;;10.35;100.00
47815;BME280;33579;50.058;18.130;2023-05-07T04:15:36;99548.75;;;10.27;100.00
47815;BME280;33579;50.058;18.130;2023-05-07T04:16:40;99545.06;;;10.19;100.00
47815;BME280;33579;50.058;18.130;2023-05-07T04:17:42;99549.22;;;10.21;100.00
47815;BME280;33579;50.058;18.130;2023-05-07T04:18:46;99555.44;;;10.20;100.00
47815;BME280;33579;50.058;18.130;2023-05-07T04:19:47;99550.06;;;10.22;100.00
47815;BME280;33579;50.058;18.130;2023-05-07T04:20:50;99560.00;;;10.18;100.00
47815;BME280;33579;50.058;18.130;2023-05-07T04:21:52;99560.00;;;10.18;100.00
47815;BME280;33579;50.058;18.130;2023-05-07T04:22:53;99555.09;;;10.13;100.00
47815;BME280;33579;50.058;18.130;2023-05-07T04:23:55;99563.50;;;10.07;100.00
47815;BME280;33579;50.058;18.130;2023-05-07T04:24:57;99560.00;;;10.07;100.00
47815;BME280;33579;50.058;18.130;2023-05-07T04:25:59;99561.94;;;10.05;100.00
47815;BME280;33579;50.058;18.130;2023-05-07T04:27:08;99569.56;;;10.08;100.00
47815;BME280;33579;50.058;18.130;2023-05-07T04:28:10;99567.78;;;10.08;100.00
47815;BME280;33579;50.058;18.130;2023-05-07T04:29:12;99578.66;;;10.04;100.00
47815;BME280;33579;50.058;18.130;2023-05-07T04:30:14;99571.84;;;10.01;100.00
47815;BME280;33579;50.058;18.130;2023-05-07T04:31:15;99571.38;;;9.96;100.00
47815;BME280;33579;50.058;18.130;2023-05-07T04:32:18;99575.31;;;10.02;100.00
47815;BME280;33579;50.058;18.130;2023-05-07T04:33:20;99575.06;;;10.05;100.00
47815;BME280;33579;50.058;18.130;2023-05-07T04:34:23;99572.19;;;9.96;100.00
47815;BME280;33579;50.058;18.130;2023-05-07T04:35:25;99570.06;;;10.02;100.00
47815;BME280;33579;50.058;18.130;2023-05-07T04:36:27;99570.41;;;10.08;100.00
47815;BME280;33579;50.058;18.130;2023-05-07T04:37:33;99574.56;;;10.11;100.00
47815;BME280;33579;50.058;18.130;2023-05-07T04:38:36;99575.16;;;10.15;100.00
47815;BME280;33579;50.058;18.130;2023-05-07T04:39:38;99576.72;;;10.17;100.00
47815;BME280;33579;50.058;18.130;2023-05-07T04:40:40;99573.84;;;10.20;100.00
47815;BME280;33579;50.058;18.130;2023-05-07T04:41:43;99570.41;;;10.20;100.00
47815;BME280;33579;50.058;18.130;2023-05-07T04:42:45;99575.75;;;10.18;100.00
47815;BME280;33579;50.058;18.130;2023-05-07T04:43:47;99574.91;;;10.18;100.00
47815;BME280;33579;50.058;18.130;2023-05-07T04:44:53;99577.19;;;10.22;100.00
47815;BME280;33579;50.058;18.130;2023-05-07T04:45:55;99566.09;;;10.19;100.00
47815;BME280;33579;50.058;18.130;2023-05-07T04:46:59;99578.50;;;10.17;100.00
47815;BME280;33579;50.058;18.130;2023-05-07T04:48:01;99578.50;;;10.17;100.00
47815;BME280;33579;50.058;18.130;2023-05-07T04:49:04;99584.38;;;10.09;100.00
47815;BME280;33579;50.058;18.130;2023-05-07T04:50:06;99588.94;;;10.07;100.00
47815;BME280;33579;50.058;18.130;2023-05-07T04:51:09;99587.38;;;10.04;100.00
47815;BME280;33579;50.058;18.130;2023-05-07T04:52:11;99584.16;;;10.01;100.00
47815;BME280;33579;50.058;18.130;2023-05-07T04:53:13;99583.41;;;9.98;100.00
47815;BME280;33579;50.058;18.130;2023-05-07T04:54:15;99588.47;;;10.02;100.00
47815;BME280;33579;50.058;18.130;2023-05-07T04:55:16;99588.31;;;10.03;100.00
47815;BME280;33579;50.058;18.130;2023-05-07T04:56:18;99593.22;;;9.96;100.00
47815;BME280;33579;50.058;18.130;2023-05-07T04:57:21;99590.59;;;9.96;100.00
47815;BME280;33579;50.058;18.130;2023-05-07T04:58:23;99590.34;;;9.99;100.00
47815;BME280;33579;50.058;18.130;2023-05-07T04:59:24;99590.00;;;9.93;100.00
47815;BME280;33579;50.058;18.130;2023-05-07T05:00:26;99594.06;;;9.97;100.00
47815;BME280;33579;50.058;18.130;2023-05-07T05:01:29;99595.50;;;10.01;100.00
47815;BME280;33579;50.058;18.130;2023-05-07T05:02:31;99601.00;;;10.09;100.00
47815;BME280;33579;50.058;18.130;2023-05-07T05:03:33;99602.91;;;10.07;100.00
47815;BME280;33579;50.058;18.130;2023-05-07T05:04:35;99605.53;;;10.07;100.00
47815;BME280;33579;50.058;18.130;2023-05-07T05:05:36;99612.13;;;10.02;100.00
47815;BME280;33579;50.058;18.130;2023-05-07T05:06:38;99610.56;;;9.99;100.00
47815;BME280;33579;50.058;18.130;2023-05-07T05:07:41;99612.34;;;9.98;100.00
47815;BME280;33579;50.058;18.130;2023-05-07T05:08:43;99611.63;;;9.96;100.00
47815;BME280;33579;50.058;18.130;2023-05-07T05:09:45;99619.25;;;9.99;100.00
47815;BME280;33579;50.058;18.130;2023-05-07T05:10:46;99622.50;;;9.92;100.00
47815;BME280;33579;50.058;18.130;2023-05-07T05:11:48;99622.50;;;9.92;100.00
47815;BME280;33579;50.058;18.130;2023-05-07T05:12:49;99614.13;;;9.87;100.00
47815;BME280;33579;50.058;18.130;2023-05-07T05:13:51;99618.06;;;9.81;100.00
47815;BME280;33579;50.058;18.130;2023-05-07T05:14:54;99620.59;;;9.82;100.00
47815;BME280;33579;50.058;18.130;2023-05-07T05:15:56;99617.59;;;9.87;100.00
47815;BME280;33579;50.058;18.130;2023-05-07T05:16:59;99611.00;;;9.81;100.00
47815;BME280;33579;50.058;18.130;2023-05-07T05:18:01;99614.59;;;9.80;100.00
47815;BME280;33579;50.058;18.130;2023-05-07T05:19:04;99616.16;;;9.72;100.00
47815;BME280;33579;50.058;18.130;2023-05-07T05:20:09;99617.09;;;9.70;100.00
47815;BME280;33579;50.058;18.130;2023-05-07T05:21:12;99611.59;;;9.74;100.00
47815;BME280;33579;50.058;18.130;2023-05-07T05:22:15;99617.81;;;9.73;100.00
47815;BME280;33579;50.058;18.130;2023-05-07T05:23:16;99627.16;;;9.77;100.00